createdAt,value
2018-10-16T00:00:55.053Z,41.0
2018-10-16T00:01:55.769Z,40.9
2018-10-16T00:02:56.553Z,41.1
2018-10-16T00:03:57.274Z,40.6
2018-10-16T00:04:58.022Z,41.2
2018-10-16T00:05:58.755Z,41.4
2018-10-16T00:06:59.494Z,41.3
2018-10-16T00:08:00.231Z,41.4
2018-10-16T00:09:00.958Z,41.6
2018-10-16T00:10:01.685Z,41.9
2018-10-16T00:11:02.421Z,41.9
2018-10-16T00:12:03.155Z,41.5
2018-10-16T00:13:03.878Z,41.6
2018-10-16T00:14:04.609Z,41.4
2018-10-16T00:15:05.344Z,41.4
2018-10-16T00:16:06.055Z,41.1
2018-10-16T00:17:06.769Z,40.7
2018-10-16T00:18:07.761Z,40.5
2018-10-16T00:19:08.499Z,40.1
2018-10-16T00:20:09.213Z,40.1
2018-10-16T00:21:09.935Z,40.1
2018-10-16T00:22:10.661Z,40.4
2018-10-16T00:23:11.438Z,40.1
2018-10-16T00:24:12.433Z,40.1
2018-10-16T00:25:13.153Z,40.1
2018-10-16T00:26:14.123Z,40.0
2018-10-16T00:27:14.851Z,40.1
2018-10-16T00:28:15.597Z,39.7
2018-10-16T00:29:16.384Z,39.5
2018-10-16T00:30:17.097Z,39.6
2018-10-16T00:31:17.845Z,39.9
2018-10-16T00:32:18.560Z,40.3
2018-10-16T00:33:19.304Z,40.4
2018-10-16T00:34:20.137Z,40.9
2018-10-16T00:35:20.869Z,40.5
2018-10-16T00:36:21.581Z,40.3
2018-10-16T00:37:22.305Z,39.9
2018-10-16T00:38:23.026Z,39.7
2018-10-16T00:39:23.753Z,39.3
2018-10-16T00:40:24.741Z,39.0
2018-10-16T00:41:25.479Z,39.1
2018-10-16T00:42:26.223Z,39.5
2018-10-16T00:43:26.935Z,39.3
2018-10-16T00:44:27.657Z,39.7
2018-10-16T00:45:28.421Z,39.5
2018-10-16T00:46:29.138Z,39.5
2018-10-16T00:47:29.860Z,39.5
2018-10-16T00:48:30.853Z,40.1
2018-10-16T00:49:31.582Z,39.3
2018-10-16T00:50:32.308Z,39.2
2018-10-16T00:51:33.039Z,38.9
2018-10-16T00:52:33.777Z,38.7
2018-10-16T00:53:34.511Z,38.1
2018-10-16T00:54:35.252Z,38.2
2018-10-16T00:55:35.972Z,38.2
2018-10-16T00:56:36.688Z,38.2
2018-10-16T00:57:37.415Z,38.2
2018-10-16T00:58:38.123Z,39.0
2018-10-16T00:59:38.867Z,39.1
2018-10-16T01:00:39.602Z,39.2
2018-10-16T01:01:40.339Z,39.5
2018-10-16T01:02:41.061Z,39.2
2018-10-16T01:03:41.791Z,39.4
2018-10-16T01:04:42.516Z,39.5
2018-10-16T01:05:43.256Z,39.4
2018-10-16T01:06:43.987Z,39.4
2018-10-16T01:07:44.724Z,39.8
2018-10-16T01:08:45.452Z,39.5
2018-10-16T01:09:46.177Z,39.4
2018-10-16T01:10:46.904Z,39.9
2018-10-16T01:11:47.631Z,39.6
2018-10-16T01:12:48.346Z,39.0
2018-10-16T01:13:49.096Z,39.1
2018-10-16T01:14:49.808Z,39.0
2018-10-16T01:15:50.546Z,39.2
2018-10-16T01:16:51.277Z,39.9
2018-10-16T01:17:52.012Z,39.5
2018-10-16T01:18:52.731Z,39.5
2018-10-16T01:19:53.485Z,40.1
2018-10-16T01:20:54.227Z,40.0
2018-10-16T01:21:54.945Z,39.5
2018-10-16T01:22:55.680Z,39.6
2018-10-16T01:23:56.397Z,39.5
2018-10-16T01:24:57.113Z,39.6
2018-10-16T01:25:57.831Z,40.1
2018-10-16T01:26:58.593Z,40.0
2018-10-16T01:27:59.634Z,39.5
2018-10-16T01:29:00.340Z,39.5
2018-10-16T01:30:01.064Z,39.5
2018-10-16T01:31:01.780Z,39.2
2018-10-16T01:32:02.502Z,39.2
2018-10-16T01:33:03.280Z,39.1
2018-10-16T01:34:04.024Z,39.0
2018-10-16T01:35:04.750Z,38.9
2018-10-16T01:36:05.491Z,38.8
2018-10-16T01:37:06.217Z,38.9
2018-10-16T01:38:06.929Z,39.0
2018-10-16T01:39:07.645Z,39.2
2018-10-16T01:40:08.384Z,39.3
2018-10-16T01:41:09.096Z,39.9
2018-10-16T01:42:09.837Z,39.7
2018-10-16T01:43:10.618Z,40.1
2018-10-16T01:44:11.342Z,39.7
2018-10-16T01:45:12.077Z,40.2
2018-10-16T01:46:13.056Z,40.0
2018-10-16T01:47:13.766Z,39.9
2018-10-16T01:48:14.743Z,40.4
2018-10-16T01:49:15.481Z,40.5
2018-10-16T01:50:16.220Z,40.2
2018-10-16T01:51:17.253Z,40.5
2018-10-16T01:52:18.279Z,40.0
2018-10-16T01:53:18.998Z,40.0
2018-10-16T01:54:19.722Z,40.1
2018-10-16T01:55:20.463Z,40.1
2018-10-16T01:56:21.175Z,40.3
2018-10-16T01:57:21.914Z,40.1
2018-10-16T01:58:22.652Z,40.1
2018-10-16T01:59:23.365Z,40.1
2018-10-16T02:00:24.088Z,40.3
2018-10-16T02:01:24.803Z,40.4
2018-10-16T02:02:25.886Z,40.0
2018-10-16T02:03:26.836Z,40.1
2018-10-16T02:04:27.558Z,39.8
2018-10-16T02:05:28.270Z,39.6
2018-10-16T02:06:28.995Z,39.7
2018-10-16T02:07:29.729Z,39.7
2018-10-16T02:08:30.464Z,39.6
2018-10-16T02:09:31.561Z,39.7
2018-10-16T02:10:32.286Z,39.7
2018-10-16T02:11:33.269Z,39.6
2018-10-16T02:12:33.993Z,39.6
2018-10-16T02:13:34.761Z,39.8
2018-10-16T02:14:35.512Z,39.8
2018-10-16T02:15:36.215Z,39.7
2018-10-16T02:16:36.931Z,39.7
2018-10-16T02:17:37.649Z,39.5
2018-10-16T02:18:38.648Z,39.6
2018-10-16T02:19:39.635Z,39.3
2018-10-16T02:20:40.348Z,38.9
2018-10-16T02:21:41.104Z,38.9
2018-10-16T02:22:41.832Z,39.0
2018-10-16T02:23:42.567Z,38.6
2018-10-16T02:24:43.288Z,38.4
2018-10-16T02:25:44.025Z,38.4
2018-10-16T02:26:44.733Z,38.1
2018-10-16T02:27:45.467Z,38.1
2018-10-16T02:28:46.208Z,38.0
2018-10-16T02:29:46.933Z,38.2
2018-10-16T02:30:47.656Z,38.1
2018-10-16T02:31:48.370Z,38.5
2018-10-16T02:32:49.109Z,38.3
2018-10-16T02:33:49.824Z,38.3
2018-10-16T02:34:50.562Z,38.2
2018-10-16T02:35:51.349Z,38.3
2018-10-16T02:36:52.073Z,38.4
2018-10-16T02:37:52.811Z,38.3
2018-10-16T02:38:53.535Z,38.2
2018-10-16T02:39:54.270Z,38.2
2018-10-16T02:40:54.998Z,38.1
2018-10-16T02:41:55.710Z,38.2
2018-10-16T02:42:56.436Z,38.1
2018-10-16T02:43:57.176Z,38.3
2018-10-16T02:44:57.900Z,38.2
2018-10-16T02:45:58.635Z,38.2
2018-10-16T02:46:59.369Z,38.5
2018-10-16T02:48:00.088Z,38.4
2018-10-16T02:49:00.821Z,38.7
2018-10-16T02:50:01.829Z,38.9
2018-10-16T02:51:02.562Z,39.2
2018-10-16T02:52:03.279Z,39.3
2018-10-16T02:53:04.060Z,40.0
2018-10-16T02:54:04.785Z,40.3
2018-10-16T02:55:05.507Z,40.4
2018-10-16T02:56:06.235Z,41.0
2018-10-16T02:57:06.974Z,41.2
2018-10-16T02:58:07.689Z,41.4
2018-10-16T02:59:08.686Z,41.9
2018-10-16T03:00:09.408Z,41.8
2018-10-16T03:01:10.130Z,42.1
2018-10-16T03:02:10.854Z,42.4
2018-10-16T03:03:11.597Z,42.5
2018-10-16T03:04:12.373Z,42.5
2018-10-16T03:05:13.094Z,42.7
2018-10-16T03:06:13.812Z,42.9
2018-10-16T03:07:14.782Z,43.0
2018-10-16T03:08:15.504Z,43.2
2018-10-16T03:09:16.235Z,43.0
2018-10-16T03:10:16.980Z,43.0
2018-10-16T03:11:17.693Z,42.6
2018-10-16T03:12:18.429Z,42.6
2018-10-16T03:13:19.141Z,43.1
2018-10-16T03:14:19.923Z,42.9
2018-10-16T03:15:20.642Z,42.9
2018-10-16T03:16:21.373Z,42.8
2018-10-16T03:17:22.105Z,42.5
2018-10-16T03:18:22.829Z,42.8
2018-10-16T03:19:23.599Z,42.9
2018-10-16T03:20:24.344Z,42.8
2018-10-16T03:21:25.077Z,42.7
2018-10-16T03:22:25.804Z,42.6
2018-10-16T03:23:26.774Z,42.7
2018-10-16T03:24:27.517Z,42.9
2018-10-16T03:25:28.244Z,42.7
2018-10-16T03:26:28.988Z,42.7
2018-10-16T03:27:29.734Z,42.6
2018-10-16T03:28:30.459Z,42.4
2018-10-16T03:29:31.188Z,42.5
2018-10-16T03:30:31.939Z,42.2
2018-10-16T03:31:32.668Z,42.4
2018-10-16T03:32:33.382Z,42.3
2018-10-16T03:33:34.130Z,42.0
2018-10-16T03:34:34.854Z,42.0
2018-10-16T03:35:35.629Z,42.0
2018-10-16T03:36:36.359Z,42.0
2018-10-16T03:37:37.090Z,42.0
2018-10-16T03:38:38.071Z,41.8
2018-10-16T03:39:38.805Z,41.9
2018-10-16T03:40:39.527Z,42.0
2018-10-16T03:41:40.264Z,42.1
2018-10-16T03:42:40.993Z,42.0
2018-10-16T03:43:41.703Z,42.0
2018-10-16T03:44:42.449Z,42.1
2018-10-16T03:45:43.173Z,41.9
2018-10-16T03:46:43.907Z,42.2
2018-10-16T03:47:44.713Z,42.1
2018-10-16T03:48:45.625Z,42.0
2018-10-16T03:49:46.340Z,41.9
2018-10-16T03:50:47.321Z,41.5
2018-10-16T03:51:48.102Z,41.5
2018-10-16T03:52:48.837Z,41.1
2018-10-16T03:53:49.557Z,40.8
2018-10-16T03:54:50.522Z,40.8
2018-10-16T03:55:51.246Z,40.7
2018-10-16T03:56:52.026Z,40.7
2018-10-16T03:57:52.741Z,40.6
2018-10-16T03:58:53.504Z,40.4
2018-10-16T03:59:54.221Z,40.7
2018-10-16T04:00:54.960Z,40.6
2018-10-16T04:01:55.677Z,40.6
2018-10-16T04:02:56.669Z,40.7
2018-10-16T04:03:57.396Z,40.7
2018-10-16T04:04:58.382Z,40.9
2018-10-16T04:05:59.100Z,41.1
2018-10-16T04:06:59.816Z,41.2
2018-10-16T04:08:00.547Z,41.6
2018-10-16T04:09:01.256Z,41.5
2018-10-16T04:10:01.987Z,41.7
2018-10-16T04:11:02.704Z,42.0
2018-10-16T04:12:03.469Z,41.9
2018-10-16T04:13:04.197Z,42.0
2018-10-16T04:14:04.972Z,41.9
2018-10-16T04:15:05.685Z,42.2
2018-10-16T04:16:06.401Z,42.1
2018-10-16T04:17:07.187Z,41.9
2018-10-16T04:18:07.934Z,42.0
2018-10-16T04:19:08.655Z,41.9
2018-10-16T04:20:09.395Z,42.0
2018-10-16T04:21:10.112Z,42.2
2018-10-16T04:22:10.938Z,41.6
2018-10-16T04:23:11.615Z,42.1
2018-10-16T04:24:12.351Z,41.7
2018-10-16T04:25:13.066Z,41.9
2018-10-16T04:26:13.792Z,42.1
2018-10-16T04:27:14.511Z,42.1
2018-10-16T04:28:15.235Z,42.6
2018-10-16T04:29:16.064Z,42.3
2018-10-16T04:30:16.671Z,42.4
2018-10-16T04:31:17.447Z,42.5
2018-10-16T04:32:18.163Z,42.8
2018-10-16T04:33:18.882Z,43.0
2018-10-16T04:34:19.615Z,43.1
2018-10-16T04:35:20.327Z,43.1
2018-10-16T04:36:21.120Z,43.0
2018-10-16T04:37:21.846Z,42.7
2018-10-16T04:38:22.571Z,43.0
2018-10-16T04:39:23.292Z,42.8
2018-10-16T04:40:24.284Z,42.8
2018-10-16T04:41:25.046Z,42.7
2018-10-16T04:42:25.739Z,42.4
2018-10-16T04:43:26.721Z,42.4
2018-10-16T04:44:27.467Z,42.3
2018-10-16T04:45:28.530Z,42.0
2018-10-16T04:46:29.243Z,42.0
2018-10-16T04:47:30.269Z,42.0
2018-10-16T04:48:31.235Z,41.9
2018-10-16T04:49:31.943Z,41.5
2018-10-16T04:50:32.688Z,41.5
2018-10-16T04:51:33.410Z,41.5
2018-10-16T04:52:34.394Z,41.3
2018-10-16T04:53:35.373Z,41.4
2018-10-16T04:54:36.114Z,41.3
2018-10-16T04:55:36.881Z,41.0
2018-10-16T04:56:37.618Z,40.9
2018-10-16T04:57:38.327Z,41.1
2018-10-16T04:58:39.330Z,40.7
2018-10-16T04:59:40.052Z,40.8
2018-10-16T05:00:41.957Z,40.9
2018-10-16T05:01:42.708Z,41.1
2018-10-16T05:02:43.703Z,41.2
2018-10-16T05:03:44.683Z,41.1
2018-10-16T05:04:45.398Z,41.2
2018-10-16T05:05:46.382Z,41.3
2018-10-16T05:06:47.093Z,41.5
2018-10-16T05:07:47.813Z,41.6
2018-10-16T05:08:48.531Z,42.0
2018-10-16T05:09:49.256Z,42.1
2018-10-16T05:10:50.225Z,42.4
2018-10-16T05:11:51.215Z,42.9
2018-10-16T05:12:51.931Z,43.1
2018-10-16T05:13:52.653Z,43.1
2018-10-16T05:14:53.628Z,43.0
2018-10-16T05:15:54.359Z,43.4
2018-10-16T05:16:55.181Z,43.9
2018-10-16T05:17:55.860Z,44.1
2018-10-16T05:18:56.610Z,44.3
2018-10-16T05:19:57.334Z,44.1
2018-10-16T05:20:58.315Z,45.1
2018-10-16T05:21:59.039Z,45.9
2018-10-16T05:22:59.751Z,46.0
2018-10-16T05:24:00.478Z,46.4
2018-10-16T05:25:01.210Z,46.1
2018-10-16T05:26:01.945Z,46.2
2018-10-16T05:27:02.684Z,46.1
2018-10-16T05:28:03.412Z,46.1
2018-10-16T05:29:04.141Z,46.2
2018-10-16T05:30:05.114Z,46.5
2018-10-16T05:31:05.886Z,46.5
2018-10-16T05:32:06.556Z,46.7
2018-10-16T05:33:07.280Z,46.7
2018-10-16T05:34:08.007Z,47.4
2018-10-16T05:35:08.739Z,47.0
2018-10-16T05:36:09.717Z,46.6
2018-10-16T05:37:10.435Z,46.1
2018-10-16T05:38:11.158Z,46.0
2018-10-16T05:39:11.901Z,45.9
2018-10-16T05:40:12.604Z,45.7
2018-10-16T05:41:13.335Z,46.2
2018-10-16T05:42:14.060Z,46.3
2018-10-16T05:43:14.828Z,46.4
2018-10-16T05:44:15.553Z,46.3
2018-10-16T05:45:16.277Z,46.5
2018-10-16T05:46:16.992Z,46.6
2018-10-16T05:47:17.732Z,46.7
2018-10-16T05:48:18.460Z,46.2
2018-10-16T05:49:19.277Z,46.0
2018-10-16T05:50:20.011Z,46.0
2018-10-16T05:51:20.759Z,46.3
2018-10-16T05:52:21.507Z,46.5
2018-10-16T05:53:22.603Z,47.4
2018-10-16T05:54:23.347Z,47.4
2018-10-16T05:55:23.986Z,46.4
2018-10-16T05:56:24.696Z,46.5
2018-10-16T05:57:25.413Z,46.1
2018-10-16T05:58:26.138Z,46.3
2018-10-16T05:59:26.868Z,46.3
2018-10-16T06:00:27.594Z,46.3
2018-10-16T06:01:28.323Z,46.8
2018-10-16T06:02:29.054Z,46.7
2018-10-16T06:03:29.775Z,46.6
2018-10-16T06:04:30.499Z,46.6
2018-10-16T06:05:31.280Z,46.6
2018-10-16T06:06:31.949Z,46.8
2018-10-16T06:07:32.923Z,47.5
2018-10-16T06:08:33.653Z,47.0
2018-10-16T06:09:34.377Z,46.7
2018-10-16T06:10:35.136Z,46.6
2018-10-16T06:11:35.839Z,46.3
2018-10-16T06:12:36.593Z,45.9
2018-10-16T06:13:37.359Z,45.6
2018-10-16T06:14:38.340Z,45.6
2018-10-16T06:15:39.095Z,45.6
2018-10-16T06:16:39.809Z,45.6
2018-10-16T06:17:40.545Z,45.4
2018-10-16T06:18:41.268Z,45.8
2018-10-16T06:19:42.013Z,46.2
2018-10-16T06:20:42.758Z,45.9
2018-10-16T06:21:43.480Z,46.0
2018-10-16T06:22:44.449Z,46.3
2018-10-16T06:23:45.219Z,46.6
2018-10-16T06:24:45.947Z,47.3
2018-10-16T06:25:46.664Z,47.7
2018-10-16T06:26:47.410Z,47.8
2018-10-16T06:27:48.253Z,47.8
2018-10-16T06:28:48.916Z,48.2
2018-10-16T06:29:49.885Z,48.5
2018-10-16T06:30:50.629Z,49.0
2018-10-16T06:31:51.356Z,49.4
2018-10-16T06:32:52.088Z,49.6
2018-10-16T06:33:52.822Z,50.3
2018-10-16T06:34:53.550Z,51.0
2018-10-16T06:35:54.271Z,51.9
2018-10-16T06:36:55.010Z,52.6
2018-10-16T06:37:55.731Z,53.5
2018-10-16T06:38:56.486Z,54.4
2018-10-16T06:39:57.197Z,54.9
2018-10-16T06:40:58.144Z,57.0
2018-10-16T06:41:58.648Z,57.1
2018-10-16T06:42:59.382Z,58.5
2018-10-16T06:44:00.223Z,58.7
2018-10-16T06:45:00.851Z,59.2
2018-10-16T06:46:01.578Z,59.6
2018-10-16T06:47:02.599Z,60.1
2018-10-16T06:48:03.437Z,60.6
2018-10-16T06:49:04.307Z,61.0
2018-10-16T06:50:05.043Z,62.2
2018-10-16T06:51:06.011Z,62.6
2018-10-16T06:52:06.731Z,62.9
2018-10-16T06:53:07.464Z,62.8
2018-10-16T06:54:08.260Z,63.0
2018-10-16T06:55:09.339Z,63.9
2018-10-16T06:56:10.030Z,64.3
2018-10-16T06:57:11.020Z,64.1
2018-10-16T06:58:11.740Z,63.8
2018-10-16T06:59:12.474Z,64.9
2018-10-16T07:00:13.278Z,65.2
2018-10-16T07:01:13.929Z,65.1
2018-10-16T07:02:14.960Z,65.1
2018-10-16T07:03:15.675Z,65.8
2018-10-16T07:04:16.655Z,66.2
2018-10-16T07:05:17.954Z,67.0
2018-10-16T07:06:18.981Z,67.2
2018-10-16T07:07:20.013Z,67.2
2018-10-16T07:08:20.825Z,67.7
2018-10-16T07:10:37.079Z,70.0
2018-10-16T07:11:38.066Z,70.2
2018-10-16T07:12:39.083Z,70.1
2018-10-16T07:13:39.808Z,69.9
2018-10-16T07:14:40.537Z,69.7
2018-10-16T07:15:41.337Z,70.2
2018-10-16T07:16:42.093Z,70.1
2018-10-16T07:17:42.820Z,70.4
2018-10-16T07:18:43.589Z,70.2
2018-10-16T07:19:44.376Z,70.8
2018-10-16T07:20:45.102Z,71.5
2018-10-16T07:21:45.831Z,70.8
2018-10-16T07:22:46.806Z,70.7
2018-10-16T07:23:47.568Z,70.9
2018-10-16T07:24:48.356Z,71.1
2018-10-16T07:25:49.130Z,71.0
2018-10-16T07:26:49.881Z,71.7
2018-10-16T07:27:50.611Z,71.5
2018-10-16T07:28:51.347Z,71.7
2018-10-16T07:29:52.100Z,72.3
2018-10-16T07:30:52.824Z,73.4
2018-10-16T07:31:53.825Z,74.9
2018-10-16T07:32:54.560Z,76.1
2018-10-16T07:33:55.292Z,76.5
2018-10-16T07:34:56.271Z,76.2
2018-10-16T07:35:57.051Z,76.4
2018-10-16T07:36:57.778Z,76.8
2018-10-16T07:37:58.640Z,76.9
2018-10-16T07:38:59.381Z,77.1
2018-10-16T07:40:00.079Z,76.2
2018-10-16T07:41:01.075Z,75.6
2018-10-16T07:42:02.066Z,76.4
2018-10-16T07:43:02.865Z,77.3
2018-10-16T07:44:03.620Z,76.8
2018-10-16T07:45:04.343Z,76.5
2018-10-16T07:46:05.092Z,76.8
2018-10-16T07:47:05.840Z,76.3
2018-10-16T07:48:06.586Z,75.9
2018-10-16T07:49:07.322Z,76.8
2018-10-16T07:50:08.307Z,78.5
2018-10-16T07:51:09.117Z,77.4
2018-10-16T07:52:09.831Z,77.3
2018-10-16T07:53:10.846Z,76.5
2018-10-16T07:54:11.555Z,76.7
2018-10-16T07:55:12.288Z,76.7
2018-10-16T07:56:13.028Z,76.4
2018-10-16T07:57:13.795Z,76.0
2018-10-16T07:58:14.744Z,74.9
2018-10-16T07:59:15.484Z,74.1
2018-10-16T08:00:16.229Z,73.9
2018-10-16T08:01:17.423Z,74.1
2018-10-16T08:02:18.202Z,73.9
2018-10-16T08:03:18.947Z,73.5
2018-10-16T08:04:19.688Z,73.1
2018-10-16T08:05:20.416Z,73.7
2018-10-16T08:06:21.161Z,73.0
2018-10-16T08:07:21.895Z,72.9
2018-10-16T08:08:22.617Z,72.3
2018-10-16T08:09:23.350Z,71.7
2018-10-16T08:10:24.102Z,72.0
2018-10-16T08:11:24.929Z,71.6
2018-10-16T08:12:25.586Z,71.5
2018-10-16T08:13:26.322Z,72.0
2018-10-16T08:14:27.397Z,72.3
2018-10-16T08:15:28.130Z,73.9
2018-10-16T08:16:28.857Z,74.6
2018-10-16T08:17:29.599Z,75.2
2018-10-16T08:18:30.328Z,74.3
2018-10-16T08:19:31.058Z,73.5
2018-10-16T08:20:31.786Z,72.9
2018-10-16T08:21:32.529Z,73.9
2018-10-16T08:22:33.292Z,73.8
2018-10-16T08:23:34.270Z,73.0
2018-10-16T08:24:35.029Z,73.1
2018-10-16T08:25:35.759Z,72.3
2018-10-16T08:26:36.518Z,71.7
2018-10-16T08:27:37.240Z,71.2
2018-10-16T08:28:38.220Z,70.7
2018-10-16T08:29:38.953Z,69.5
2018-10-16T08:30:40.041Z,68.7
2018-10-16T08:31:40.963Z,67.9
2018-10-16T08:32:41.686Z,67.9
2018-10-16T08:33:42.698Z,68.6
2018-10-16T08:34:43.475Z,68.2
2018-10-16T08:35:44.218Z,69.1
2018-10-16T08:36:45.056Z,70.1
2018-10-16T08:37:45.690Z,69.8
2018-10-16T08:38:46.686Z,70.0
2018-10-16T08:39:47.418Z,70.8
2018-10-16T08:40:48.158Z,72.3
2018-10-16T08:41:48.927Z,72.4
2018-10-16T08:42:49.610Z,72.6
2018-10-16T08:43:50.348Z,72.3
2018-10-16T08:44:51.100Z,72.4
2018-10-16T08:45:51.823Z,71.8
2018-10-16T08:46:52.556Z,72.4
2018-10-16T08:47:53.542Z,73.8
2018-10-16T08:48:54.268Z,73.8
2018-10-16T08:49:55.000Z,73.8
2018-10-16T08:50:55.740Z,74.9
2018-10-16T08:51:56.724Z,73.8
2018-10-16T08:52:57.451Z,73.1
2018-10-16T08:53:58.183Z,73.2
2018-10-16T08:54:58.973Z,73.6
2018-10-16T08:55:59.698Z,73.5
2018-10-16T08:57:00.418Z,73.8
2018-10-16T08:58:01.153Z,74.4
2018-10-16T08:59:01.880Z,75.0
2018-10-16T09:00:02.865Z,74.3
2018-10-16T09:01:03.622Z,75.6
2018-10-16T09:02:04.382Z,75.7
2018-10-16T09:03:05.108Z,76.9
2018-10-16T09:04:05.832Z,74.7
2018-10-16T09:05:06.821Z,73.4
2018-10-16T09:06:07.548Z,72.9
2018-10-16T09:07:08.356Z,73.3
2018-10-16T09:08:10.276Z,74.0
2018-10-16T09:09:11.414Z,74.6
2018-10-16T09:10:12.138Z,75.8
2018-10-16T09:11:12.867Z,74.9
2018-10-16T09:12:13.603Z,75.0
2018-10-16T09:13:14.474Z,74.8
2018-10-16T09:14:15.143Z,75.3
2018-10-16T09:15:15.842Z,76.3
2018-10-16T09:16:16.581Z,76.9
2018-10-16T09:17:17.312Z,77.3
2018-10-16T09:18:18.102Z,76.9
2018-10-16T09:19:18.831Z,76.9
2018-10-16T09:20:19.553Z,78.4
2018-10-16T09:21:20.297Z,77.2
2018-10-16T09:22:21.029Z,76.7
2018-10-16T09:23:21.810Z,76.3
2018-10-16T09:24:22.534Z,75.8
2018-10-16T09:25:23.284Z,75.7
2018-10-16T09:26:24.035Z,76.1
2018-10-16T09:27:24.754Z,76.3
2018-10-16T09:28:25.832Z,76.1
2018-10-16T09:29:26.574Z,76.7
2018-10-16T09:30:27.570Z,76.6
2018-10-16T09:31:28.299Z,79.0
2018-10-16T09:32:29.274Z,79.1
2018-10-16T09:33:30.169Z,77.2
2018-10-16T09:34:30.985Z,77.7
2018-10-16T09:35:31.699Z,78.3
2018-10-16T09:36:32.422Z,79.3
2018-10-16T09:37:33.243Z,79.8
2018-10-16T09:38:33.902Z,80.8
2018-10-16T09:39:34.896Z,80.4
2018-10-16T09:41:37.361Z,80.1
2018-10-16T09:42:38.099Z,81.0
2018-10-16T09:43:39.099Z,81.8
2018-10-16T09:44:40.437Z,81.4
2018-10-16T09:45:41.311Z,82.3
2018-10-16T09:46:42.286Z,83.9
2018-10-16T09:47:43.020Z,85.1
2018-10-16T09:48:43.759Z,85.2
2018-10-16T09:49:44.808Z,86.5
2018-10-16T09:50:47.074Z,87.3
2018-10-16T09:51:47.218Z,86.7
2018-10-16T09:52:47.958Z,87.2
2018-10-16T09:53:48.702Z,89.8
2018-10-16T09:54:49.441Z,89.5
2018-10-16T09:55:50.182Z,90.5
2018-10-16T09:56:50.920Z,90.4
2018-10-16T09:57:51.920Z,91.8
2018-10-16T09:58:52.685Z,92.5
2018-10-16T09:59:53.415Z,93.1
2018-10-16T10:00:54.528Z,93.2
2018-10-16T10:01:55.188Z,95.2
2018-10-16T10:02:56.183Z,95.4
2018-10-16T10:03:56.958Z,94.2
2018-10-16T10:04:58.137Z,96.1
2018-10-16T10:05:58.973Z,95.1
2018-10-16T10:07:00.761Z,96.1
2018-10-16T10:08:01.672Z,95.9
2018-10-16T10:09:02.430Z,96.7
2018-10-16T10:10:03.154Z,96.3
2018-10-16T10:11:04.305Z,95.8
2018-10-16T10:12:04.967Z,96.7
2018-10-16T10:13:05.708Z,96.9
2018-10-16T10:14:06.459Z,96.9
2018-10-16T10:15:07.185Z,96.6
2018-10-16T10:16:07.925Z,96.1
2018-10-16T10:17:08.672Z,95.9
2018-10-16T10:18:09.384Z,96.2
2018-10-16T10:19:10.386Z,95.9
2018-10-16T10:20:11.109Z,96.2
2018-10-16T10:21:11.841Z,97.7
2018-10-16T10:22:12.842Z,97.3
2018-10-16T10:23:13.859Z,98.2
2018-10-16T10:24:14.606Z,98.7
2018-10-16T10:25:15.398Z,98.4
2018-10-16T10:26:16.083Z,99.7
2018-10-16T10:27:16.825Z,100.0
2018-10-16T10:28:17.547Z,100.0
2018-10-16T10:29:18.284Z,100.0
2018-10-16T10:30:19.039Z,100.0
2018-10-16T10:31:19.829Z,100.0
2018-10-16T10:32:20.556Z,100.0
2018-10-16T10:33:21.321Z,100.0
2018-10-16T10:34:22.096Z,100.0
2018-10-16T10:35:22.858Z,100.0
2018-10-16T10:36:23.570Z,100.0
2018-10-16T10:37:24.321Z,100.0
2018-10-16T10:38:25.102Z,100.0
2018-10-16T10:39:25.842Z,100.0
2018-10-16T10:40:26.573Z,100.0
2018-10-16T10:41:27.321Z,100.0
2018-10-16T10:42:28.063Z,100.0
2018-10-16T10:43:28.801Z,100.0
2018-10-16T10:44:29.530Z,100.0
2018-10-16T10:45:30.271Z,100.0
2018-10-16T10:46:31.020Z,100.0
2018-10-16T10:47:31.753Z,100.0
2018-10-16T10:48:32.547Z,100.0
2018-10-16T10:49:33.286Z,100.0
2018-10-16T10:50:34.557Z,100.0
2018-10-16T10:51:35.258Z,100.0
2018-10-16T10:52:35.728Z,100.0
2018-10-16T10:53:36.492Z,100.0
2018-10-16T10:54:37.240Z,100.0
2018-10-16T10:55:37.972Z,100.0
2018-10-16T10:56:38.780Z,100.0
2018-10-16T10:57:39.445Z,100.0
2018-10-16T10:58:40.177Z,100.0
2018-10-16T10:59:40.928Z,100.0
2018-10-16T11:00:41.661Z,100.0
2018-10-16T11:01:42.400Z,99.4
2018-10-16T11:02:43.129Z,100.0
2018-10-16T11:03:43.955Z,100.0
2018-10-16T11:04:44.650Z,100.0
2018-10-16T11:05:45.378Z,100.0
2018-10-16T11:06:46.198Z,100.0
2018-10-16T11:07:46.941Z,99.7
2018-10-16T11:08:47.733Z,100.0
2018-10-16T11:09:48.467Z,100.0
2018-10-16T11:10:49.199Z,100.0
2018-10-16T11:11:49.991Z,100.0
2018-10-16T11:12:50.748Z,100.0
2018-10-16T11:13:51.492Z,100.0
2018-10-16T11:14:52.243Z,100.0
2018-10-16T11:15:53.048Z,100.0
2018-10-16T11:16:54.054Z,100.0
2018-10-16T11:17:54.781Z,100.0
2018-10-16T11:18:55.528Z,100.0
2018-10-16T11:19:56.263Z,100.0
2018-10-16T11:20:57.043Z,100.0
2018-10-16T11:21:57.759Z,100.0
2018-10-16T11:22:58.502Z,100.0
2018-10-16T11:23:59.518Z,100.0
2018-10-16T11:25:00.240Z,100.0
2018-10-16T11:26:01.223Z,100.0
2018-10-16T11:27:01.969Z,100.0
2018-10-16T11:28:02.696Z,100.0
2018-10-16T11:29:03.438Z,100.0
2018-10-16T11:30:04.175Z,100.0
2018-10-16T11:31:04.907Z,100.0
2018-10-16T11:32:05.645Z,100.0
2018-10-16T11:33:06.458Z,100.0
2018-10-16T11:34:07.128Z,100.0
2018-10-16T11:35:07.863Z,100.0
2018-10-16T11:36:08.639Z,99.5
2018-10-16T11:37:09.518Z,100.0
2018-10-16T11:38:10.127Z,99.7
2018-10-16T11:39:10.941Z,99.5
2018-10-16T11:40:11.617Z,99.8
2018-10-16T11:41:12.351Z,99.5
2018-10-16T11:42:13.104Z,99.2
2018-10-16T11:43:13.856Z,99.9
2018-10-16T11:44:14.587Z,99.4
2018-10-16T11:45:15.367Z,98.9
2018-10-16T11:46:16.072Z,99.2
2018-10-16T11:47:16.810Z,99.5
2018-10-16T11:48:17.547Z,99.9
2018-10-16T11:49:18.341Z,99.5
2018-10-16T11:50:19.099Z,99.4
2018-10-16T11:51:19.837Z,100.0
2018-10-16T11:52:20.663Z,100.0
2018-10-16T11:53:21.309Z,100.0
2018-10-16T11:54:22.045Z,100.0
2018-10-16T11:55:22.790Z,100.0
2018-10-16T11:56:23.526Z,99.7
2018-10-16T11:57:24.264Z,100.0
2018-10-16T11:58:25.254Z,100.0
2018-10-16T11:59:26.081Z,100.0
2018-10-16T12:00:26.728Z,100.0
2018-10-16T12:01:27.457Z,100.0
2018-10-16T12:02:28.244Z,100.0
2018-10-16T12:03:28.955Z,100.0
2018-10-16T12:04:29.706Z,100.0
2018-10-16T12:05:30.715Z,100.0
2018-10-16T12:06:31.446Z,100.0
2018-10-16T12:07:32.181Z,100.0
2018-10-16T12:08:32.909Z,100.0
2018-10-16T12:09:33.665Z,100.0
2018-10-16T12:10:34.437Z,100.0
2018-10-16T12:11:35.153Z,100.0
2018-10-16T12:12:36.168Z,100.0
2018-10-16T12:13:36.911Z,100.0
2018-10-16T12:14:37.637Z,100.0
2018-10-16T12:15:38.374Z,100.0
2018-10-16T12:16:39.176Z,100.0
2018-10-16T12:17:39.862Z,100.0
2018-10-16T12:18:40.895Z,100.0
2018-10-16T12:19:41.648Z,100.0
2018-10-16T12:20:42.383Z,100.0
2018-10-16T12:21:43.102Z,100.0
2018-10-16T12:22:43.841Z,100.0
2018-10-16T12:23:44.893Z,100.0
2018-10-16T12:24:45.571Z,100.0
2018-10-16T12:25:46.319Z,100.0
2018-10-16T12:26:47.066Z,100.0
2018-10-16T12:27:48.070Z,100.0
2018-10-16T12:28:48.839Z,100.0
2018-10-16T12:29:49.597Z,100.0
2018-10-16T12:30:50.344Z,100.0
2018-10-16T12:31:51.077Z,100.0
2018-10-16T12:32:51.820Z,100.0
2018-10-16T12:33:52.559Z,100.0
2018-10-16T12:34:53.597Z,100.0
2018-10-16T12:35:54.330Z,100.0
2018-10-16T12:36:55.161Z,100.0
2018-10-16T12:37:55.882Z,100.0
2018-10-16T12:38:56.677Z,100.0
2018-10-16T12:39:57.409Z,100.0
2018-10-16T12:40:58.184Z,100.0
2018-10-16T12:41:58.923Z,100.0
2018-10-16T12:42:59.723Z,100.0
2018-10-16T12:44:00.377Z,100.0
2018-10-16T12:45:01.161Z,100.0
2018-10-16T12:46:01.889Z,100.0
2018-10-16T12:47:02.670Z,100.0
2018-10-16T12:48:03.378Z,100.0
2018-10-16T12:49:04.091Z,100.0
2018-10-16T12:50:04.881Z,100.0
2018-10-16T12:51:05.680Z,100.0
2018-10-16T12:52:06.313Z,100.0
2018-10-16T12:53:07.120Z,100.0
2018-10-16T12:54:07.818Z,100.0
2018-10-16T12:55:08.558Z,100.0
2018-10-16T12:56:09.388Z,100.0
2018-10-16T12:57:10.150Z,100.0
2018-10-16T12:58:10.869Z,100.0
2018-10-16T12:59:11.676Z,100.0
2018-10-16T13:00:12.663Z,100.0
2018-10-16T13:01:13.341Z,100.0
2018-10-16T13:02:14.445Z,100.0
2018-10-16T13:03:15.219Z,100.0
2018-10-16T13:04:15.868Z,100.0
2018-10-16T13:05:16.644Z,100.0
2018-10-16T13:06:17.346Z,100.0
2018-10-16T13:07:18.134Z,100.0
2018-10-16T13:08:18.879Z,100.0
2018-10-16T13:09:19.928Z,100.0
2018-10-16T13:10:20.686Z,100.0
2018-10-16T13:11:21.415Z,100.0
2018-10-16T13:12:22.139Z,100.0
2018-10-16T13:13:22.888Z,100.0
2018-10-16T13:14:23.631Z,100.0
2018-10-16T13:15:24.354Z,100.0
2018-10-16T13:16:25.147Z,100.0
2018-10-16T13:17:26.522Z,100.0
2018-10-16T13:18:27.233Z,100.0
2018-10-16T13:19:27.972Z,100.0
2018-10-16T13:20:28.967Z,100.0
2018-10-16T13:21:29.721Z,100.0
2018-10-16T13:22:30.457Z,100.0
2018-10-16T13:23:31.255Z,100.0
2018-10-16T13:24:31.955Z,100.0
2018-10-16T13:25:32.691Z,100.0
2018-10-16T13:26:33.441Z,100.0